Seastreak Highlands — WDE4031 — position and weather

sailwx.info

Track history (hours):
 
Tides and Currents Weather Stations Pressure Air Temp Water Temp Dewpoint Dewpoint Depression Visibility Wind Speed Wind Dir Waves Ship Positions

Seastreak Highlands

Owner: Seastreak llc, atlantic highlands, NJ. More information available from US FCC via Universal Licensing System and Coast Guard Vessel Documentation Center.

Last reported at 2014-Oct-31 21:33 UTC. Time now 2014-Oct-31 22:21 UTC.
Position N 40°34' W 074°03'.

Length 44 m; draft 2 m.

Type: High speed craft. MMSI: 367347670.

Date/timePositionNaut miles runAvg speedWind from/ knotsBaromVisibWave heightAir tempDewpointWater temp
2014-Oct-31 21:33N 40°34' W 074°03'1 1.4
2014-Oct-31 20:33N 40°35' W 074°03'9 9.3
2014-Oct-31 19:34N 40°43' W 073°58'1817.8
2014-Oct-31 18:32N 40°25' W 074°01'1717.5
2014-Oct-31 17:33N 40°42' W 074°00'3 1.3
2014-Oct-31 15:34N 40°40' W 074°02'0 0.2
2014-Oct-31 14:34N 40°40' W 074°02'1311.6
2014-Oct-31 13:27N 40°27' W 074°02'1820.1
2014-Oct-31 12:34N 40°45' W 073°58'2015.3
2014-Oct-31 11:17N 40°25' W 074°02'0 0.0
2014-Oct-31 10:31N 40°25' W 074°02'7 0.9
2014-Oct-31 02:21N 40°32' W 074°02'1315.9
2014-Oct-31 01:33N 40°45' W 073°58'20 8.5
2014-Oct-30 23:14N 40°25' W 074°00'912.4
2014-Oct-30 22:32N 40°33' W 074°02'4 3.7
2014-Oct-30 21:34N 40°37' W 074°03'3 3.1
2014-Oct-30 20:33N 40°34' W 074°02'7 6.7
2014-Oct-30 19:34N 40°40' W 074°02'7 4.6
2014-Oct-30 18:04N 40°34' W 074°02'917.9
2014-Oct-30 17:34N 40°43' W 073°59'3 1.6
2014-Oct-30 15:33N 40°40' W 074°02'0 0.5
2014-Oct-30 14:34N 40°40' W 074°02'6 4.3
2014-Oct-30 13:11N 40°34' W 074°02'1118.0
2014-Oct-30 12:33N 40°45' W 073°58'20 2.1
2014-Oct-30 03:05N 40°25' W 074°02'5 8.0
2014-Oct-30 02:28N 40°30' W 074°02'1516.2
2014-Oct-30 01:33N 40°45' W 073°58'11 3.8
2014-Oct-29 22:31N 40°34' W 074°02'4 4.5
2014-Oct-29 21:33N 40°38' W 074°03'3 3.2
2014-Oct-29 20:32N 40°35' W 074°02'9 9.4
2014-Oct-29 19:34N 40°43' W 073°58'2 0.8
2014-Oct-29 17:34N 40°42' W 073°60'1413.4
2014-Oct-29 16:32N 40°29' W 074°02'1111.7
2014-Oct-29 15:34N 40°40' W 074°02'1 1.5
2014-Oct-29 14:34N 40°39' W 074°02'1413.6
2014-Oct-29 13:33N 40°25' W 074°02'2019.7
2014-Oct-29 12:33N 40°45' W 073°58'19 9.6
2014-Oct-29 10:33N 40°25' W 074°01'3 0.4
2014-Oct-29 02:32N 40°28' W 074°02'1616.9
2014-Oct-29 01:33N 40°45' W 073°58'2019.9
2014-Oct-29 00:33N 40°25' W 073°60'0 0.2
2014-Oct-28 23:33N 40°25' W 073°60'9 9.0
2014-Oct-28 22:34N 40°33' W 074°02'4 4.3
2014-Oct-28 21:34N 40°38' W 074°03'4 3.5
2014-Oct-28 20:34N 40°34' W 074°02'1010.1
2014-Oct-28 19:34N 40°44' W 073°58'1916.2
2014-Oct-28 18:24N 40°25' W 074°02'1720.7
2014-Oct-28 17:34N 40°42' W 073°59'1510.0
2014-Oct-28 16:05N 40°28' W 074°01'1428.0
2014-Oct-28 15:34N 40°42' W 073°60'3 3.1
2014-Oct-28 14:34N 40°40' W 074°03'1413.8
2014-Oct-28 13:31N 40°26' W 074°02'1920.0
2014-Oct-28 12:33N 40°45' W 073°58'1919.2
2014-Oct-28 11:33N 40°26' W 074°02'2 1.8
2014-Oct-28 10:33N 40°25' W 073°60'2 1.9
2014-Oct-28 09:33N 40°25' W 074°02'2 0.3
2014-Oct-28 02:33N 40°27' W 074°01'1817.9
2014-Oct-28 01:33N 40°45' W 073°58'2014.8
2014-Oct-28 00:12N 40°25' W 073°60'9 5.5
2014-Oct-27 22:32N 40°34' W 074°02'4 4.5
2014-Oct-27 21:33N 40°38' W 074°03'4 3.7
2014-Oct-27 20:33N 40°34' W 074°02'7 7.4
2014-Oct-27 19:34N 40°41' W 074°01'1 0.5
2014-Oct-27 17:34N 40°42' W 073°60'2 1.2
2014-Oct-27 15:34N 40°40' W 074°02'1 1.0
2014-Oct-27 14:34N 40°39' W 074°02'7 5.6
2014-Oct-27 13:15N 40°32' W 074°02'1318.9
2014-Oct-27 12:33N 40°45' W 073°58'  
2014-Oct-24 23:11N 40°25' W 074°02'813.0
2014-Oct-24 22:32N 40°34' W 074°02'3 3.6
2014-Oct-24 21:34N 40°37' W 074°03'3 3.0
2014-Oct-24 20:33N 40°34' W 074°02'9 9.0
2014-Oct-24 19:34N 40°43' W 073°58'11 1.7
2014-Oct-24 13:10N 40°32' W 074°02'1321.2
2014-Oct-24 12:33N 40°45' W 073°58'11 0.8
2014-Oct-23 22:34N 40°34' W 074°02'2 2.3
2014-Oct-23 21:34N 40°37' W 074°03'2 2.4
2014-Oct-23 20:33N 40°34' W 074°02'8 8.2
2014-Oct-23 19:34N 40°42' W 073°60'4 0.9
2014-Oct-23 15:34N 40°39' W 074°02'3 2.6
2014-Oct-23 14:34N 40°36' W 074°03'5 3.9
2014-Oct-23 13:16N 40°31' W 074°02'1418.8
2014-Oct-23 12:33N 40°45' W 073°58'1913.4
2014-Oct-23 11:07N 40°25' W 074°00'1 0.8
2014-Oct-23 10:27N 40°25' W 074°01'10 0.9
2014-Oct-22 22:33N 40°36' W 074°03'1 0.8
2014-Oct-22 21:34N 40°36' W 074°03'2 2.1
2014-Oct-22 20:33N 40°34' W 074°02'7 7.0
2014-Oct-22 19:34N 40°41' W 074°01'15 4.5
2014-Oct-22 16:05N 40°26' W 074°01'1427.2
2014-Oct-22 15:34N 40°40' W 074°03'2 1.6
2014-Oct-22 14:34N 40°38' W 074°02'7 5.8
2014-Oct-22 13:18N 40°31' W 074°02'1418.6
2014-Oct-22 12:33N 40°45' W 073°58'10 0.7
2014-Oct-21 22:33N 40°36' W 074°03'1 1.4
2014-Oct-21 21:33N 40°37' W 074°03'  
Track history (hours):
 
Tides and Currents Weather Stations Pressure Air Temp Water Temp Dewpoint Dewpoint Depression Visibility Wind Speed Wind Dir Waves Ship Positions

Seastreak Highlands

Owner: Seastreak llc, atlantic highlands, NJ. More information available from US FCC via Universal Licensing System and Coast Guard Vessel Documentation Center.

Last reported at 2014-Oct-31 21:33 UTC. Time now 2014-Oct-31 22:21 UTC.
Position N 40°34' W 074°03'.

Length 44 m; draft 2 m.

Type: High speed craft. MMSI: 367347670.

Date/timePositionNaut miles runAvg speedWind from/ knotsBaromVisibWave heightAir tempDewpointWater temp
2014-Oct-31 21:33N 40°34' W 074°03'1 1.4
2014-Oct-31 20:33N 40°35' W 074°03'9 9.3
2014-Oct-31 19:34N 40°43' W 073°58'1817.8
2014-Oct-31 18:32N 40°25' W 074°01'1717.5
2014-Oct-31 17:33N 40°42' W 074°00'3 1.3
2014-Oct-31 15:34N 40°40' W 074°02'0 0.2
2014-Oct-31 14:34N 40°40' W 074°02'1311.6
2014-Oct-31 13:27N 40°27' W 074°02'1820.1
2014-Oct-31 12:34N 40°45' W 073°58'2015.3
2014-Oct-31 11:17N 40°25' W 074°02'0 0.0
2014-Oct-31 10:31N 40°25' W 074°02'7 0.9
2014-Oct-31 02:21N 40°32' W 074°02'1315.9
2014-Oct-31 01:33N 40°45' W 073°58'20 8.5
2014-Oct-30 23:14N 40°25' W 074°00'912.4
2014-Oct-30 22:32N 40°33' W 074°02'4 3.7
2014-Oct-30 21:34N 40°37' W 074°03'3 3.1
2014-Oct-30 20:33N 40°34' W 074°02'7 6.7
2014-Oct-30 19:34N 40°40' W 074°02'7 4.6
2014-Oct-30 18:04N 40°34' W 074°02'917.9
2014-Oct-30 17:34N 40°43' W 073°59'3 1.6
2014-Oct-30 15:33N 40°40' W 074°02'0 0.5
2014-Oct-30 14:34N 40°40' W 074°02'6 4.3
2014-Oct-30 13:11N 40°34' W 074°02'1118.0
2014-Oct-30 12:33N 40°45' W 073°58'20 2.1
2014-Oct-30 03:05N 40°25' W 074°02'5 8.0
2014-Oct-30 02:28N 40°30' W 074°02'1516.2
2014-Oct-30 01:33N 40°45' W 073°58'11 3.8
2014-Oct-29 22:31N 40°34' W 074°02'4 4.5
2014-Oct-29 21:33N 40°38' W 074°03'3 3.2
2014-Oct-29 20:32N 40°35' W 074°02'9 9.4
2014-Oct-29 19:34N 40°43' W 073°58'2 0.8
2014-Oct-29 17:34N 40°42' W 073°60'1413.4
2014-Oct-29 16:32N 40°29' W 074°02'1111.7
2014-Oct-29 15:34N 40°40' W 074°02'1 1.5
2014-Oct-29 14:34N 40°39' W 074°02'1413.6
2014-Oct-29 13:33N 40°25' W 074°02'2019.7
2014-Oct-29 12:33N 40°45' W 073°58'19 9.6
2014-Oct-29 10:33N 40°25' W 074°01'3 0.4
2014-Oct-29 02:32N 40°28' W 074°02'1616.9
2014-Oct-29 01:33N 40°45' W 073°58'2019.9
2014-Oct-29 00:33N 40°25' W 073°60'0 0.2
2014-Oct-28 23:33N 40°25' W 073°60'9 9.0
2014-Oct-28 22:34N 40°33' W 074°02'4 4.3
2014-Oct-28 21:34N 40°38' W 074°03'4 3.5
2014-Oct-28 20:34N 40°34' W 074°02'1010.1
2014-Oct-28 19:34N 40°44' W 073°58'1916.2
2014-Oct-28 18:24N 40°25' W 074°02'1720.7
2014-Oct-28 17:34N 40°42' W 073°59'1510.0
2014-Oct-28 16:05N 40°28' W 074°01'1428.0
2014-Oct-28 15:34N 40°42' W 073°60'3 3.1
2014-Oct-28 14:34N 40°40' W 074°03'1413.8
2014-Oct-28 13:31N 40°26' W 074°02'1920.0
2014-Oct-28 12:33N 40°45' W 073°58'1919.2
2014-Oct-28 11:33N 40°26' W 074°02'2 1.8
2014-Oct-28 10:33N 40°25' W 073°60'2 1.9
2014-Oct-28 09:33N 40°25' W 074°02'2 0.3
2014-Oct-28 02:33N 40°27' W 074°01'1817.9
2014-Oct-28 01:33N 40°45' W 073°58'2014.8
2014-Oct-28 00:12N 40°25' W 073°60'9 5.5
2014-Oct-27 22:32N 40°34' W 074°02'4 4.5
2014-Oct-27 21:33N 40°38' W 074°03'4 3.7
2014-Oct-27 20:33N 40°34' W 074°02'7 7.4
2014-Oct-27 19:34N 40°41' W 074°01'1 0.5
2014-Oct-27 17:34N 40°42' W 073°60'2 1.2
2014-Oct-27 15:34N 40°40' W 074°02'1 1.0
2014-Oct-27 14:34N 40°39' W 074°02'7 5.6
2014-Oct-27 13:15N 40°32' W 074°02'1318.9
2014-Oct-27 12:33N 40°45' W 073°58'  
2014-Oct-24 23:11N 40°25' W 074°02'813.0
2014-Oct-24 22:32N 40°34' W 074°02'3 3.6
2014-Oct-24 21:34N 40°37' W 074°03'3 3.0
2014-Oct-24 20:33N 40°34' W 074°02'9 9.0
2014-Oct-24 19:34N 40°43' W 073°58'11 1.7
2014-Oct-24 13:10N 40°32' W 074°02'1321.2
2014-Oct-24 12:33N 40°45' W 073°58'11 0.8
2014-Oct-23 22:34N 40°34' W 074°02'2 2.3
2014-Oct-23 21:34N 40°37' W 074°03'2 2.4
2014-Oct-23 20:33N 40°34' W 074°02'8 8.2
2014-Oct-23 19:34N 40°42' W 073°60'4 0.9
2014-Oct-23 15:34N 40°39' W 074°02'3 2.6
2014-Oct-23 14:34N 40°36' W 074°03'5 3.9
2014-Oct-23 13:16N 40°31' W 074°02'1418.8
2014-Oct-23 12:33N 40°45' W 073°58'1913.4
2014-Oct-23 11:07N 40°25' W 074°00'1 0.8
2014-Oct-23 10:27N 40°25' W 074°01'10 0.9
2014-Oct-22 22:33N 40°36' W 074°03'1 0.8
2014-Oct-22 21:34N 40°36' W 074°03'2 2.1
2014-Oct-22 20:33N 40°34' W 074°02'7 7.0
2014-Oct-22 19:34N 40°41' W 074°01'15 4.5
2014-Oct-22 16:05N 40°26' W 074°01'1427.2
2014-Oct-22 15:34N 40°40' W 074°03'2 1.6
2014-Oct-22 14:34N 40°38' W 074°02'7 5.8
2014-Oct-22 13:18N 40°31' W 074°02'1418.6
2014-Oct-22 12:33N 40°45' W 073°58'10 0.7
2014-Oct-21 22:33N 40°36' W 074°03'1 1.4
2014-Oct-21 21:33N 40°37' W 074°03'  

Dump ship's entire track history